Decoded Metar for OIBS (SIRI ISLAND in IRAN) (IATA:N/A) | Meteo·Mobile Aviation Weather
aviador You're here:

OIBS Decoded Metar

SIRI ISLAND in IRAN
Report Time2019-01-18 13:00:00
UTC Time2019-01-18 13:43:23
Flight Rules vfr VFR
Wind270° at 19 kt
W.Decomp.*RWY 30: 16.3 kt HW 9.8 kt LCW
W.Rank270° ranks 2
Current wind is above 270° avg. (12.5)
Visibility8000 m
Phenomena:N/A
Clouds:N/A
Expected CloudBase > 4,800 ft AGL from Temp-Dew spread
CeilingNone
Temp21°C (ISA +6)
Dew Point09°C (46% RH)
AAT13.9°C
QNH1014 hPa
Density Alt876 ft
Elevation42 ft
Report Wrong Elevation
Raw Report
METAR OIBS 181300Z 27019KT 8000 NSC 21/09 Q1014=

Extra information for OIBS:More info

Metar Taf Metar & Taf Last 4 Metars F.Rules Stats Wind Profile Meteogram Temp Stats Airport Information Weather charts Add Link Nearby VenuesMetar ALERT Operation Metar Decoded Social comments